Wetterstation Vordersexau
Wetterdaten: Woche 30.11.15 - 06.12.15 (KW49)
Datum Zeit Temp. A. Feuchte A. Luftdruck Regen Wind Richtung Taupunkt Windchill Windben
30.11.2015 00:00 10,1 C 82 % 1022,7 hPa 0,4 l/m 16,2 km/h S-SW 7,2 C 4,8 C 9,0 km/h
30.11.2015 01:00 9,9 C 84 % 1022,4 hPa 0,0 l/m 17,5 km/h W-SW 7,3 C 4,0 C 9,7 km/h
30.11.2015 02:00 9,4 C 85 % 1022,8 hPa 0,0 l/m 17,5 km/h SW 7,0 C 3,4 C 9,7 km/h
30.11.2015 03:00 9,6 C 84 % 1023,1 hPa 0,0 l/m 30,5 km/h W 7,0 C -0,0 C 16,9 km/h
30.11.2015 04:00 9,8 C 82 % 1023,7 hPa 0,0 l/m 20,1 km/h SW 6,9 C 3,0 C 11,2 km/h
30.11.2015 05:00 9,5 C 84 % 1023,9 hPa 0,0 l/m 26,6 km/h W 6,9 C 0,7 C 14,8 km/h
30.11.2015 06:00 9,8 C 82 % 1024,1 hPa 0,0 l/m 13,6 km/h SW 6,9 C 5,5 C 7,6 km/h
30.11.2015 07:00 9,8 C 82 % 1024,4 hPa 0,0 l/m 23,3 km/h SW 6,9 C 2,0 C 13,0 km/h
30.11.2015 08:00 10,3 C 80 % 1024,9 hPa 0,0 l/m 24,0 km/h W-SW 7,0 C 2,5 C 13,3 km/h
30.11.2015 09:00 10,3 C 80 % 1025,1 hPa 0,0 l/m 38,2 km/h W-SW 7,0 C -0,4 C 21,2 km/h
30.11.2015 10:00 10,3 C 81 % 1025,4 hPa 0,0 l/m 18,8 km/h W 7,2 C 4,1 C 10,4 km/h
30.11.2015 11:00 10,9 C 79 % 1024,9 hPa 0,0 l/m 17,5 km/h W-SW 7,4 C 5,3 C 9,7 km/h
30.11.2015 12:00 10,6 C 81 % 1024,5 hPa 0,0 l/m 35,6 km/h W-NW 7,5 C 0,5 C 19,8 km/h
30.11.2015 13:00 11,8 C 75 % 1023,8 hPa 0,0 l/m 28,5 km/h SW 7,5 C 3,5 C 15,8 km/h
30.11.2015 14:00 11,4 C 77 % 1023,5 hPa 0,0 l/m 21,4 km/h W-SW 7,5 C 4,7 C 11,9 km/h
30.11.2015 15:00 11,1 C 79 % 1023,0 hPa 0,0 l/m 16,8 km/h W-SW 7,6 C 5,8 C 9,4 km/h
30.11.2015 16:00 10,8 C 80 % 1023,0 hPa 0,0 l/m 25,9 km/h W-SW 7,5 C 2,7 C 14,4 km/h
30.11.2015 17:00 10,8 C 79 % 1023,0 hPa 0,0 l/m 31,1 km/h SW 7,3 C 1,6 C 17,3 km/h
30.11.2015 18:00 10,6 C 78 % 1023,2 hPa 0,0 l/m 31,8 km/h W-SW 6,9 C 1,1 C 17,6 km/h
30.11.2015 19:00 10,6 C 79 % 1023,5 hPa 0,0 l/m 49,9 km/h SW 7,1 C -1,4 C 27,7 km/h
30.11.2015 20:00 10,4 C 79 % 1023,7 hPa 0,0 l/m 32,4 km/h W-SW 6,9 C 0,7 C 18,0 km/h
30.11.2015 21:00 10,2 C 81 % 1024,6 hPa 0,0 l/m 30,5 km/h W-SW 7,1 C 0,8 C 16,9 km/h
30.11.2015 22:00 10,1 C 82 % 1023,6 hPa 0,0 l/m 27,9 km/h W-SW 7,2 C 1,3 C 15,5 km/h
30.11.2015 23:00 10,3 C 80 % 1024,2 hPa 0,0 l/m 29,8 km/h W-SW 7,0 C 1,1 C 16,6 km/h
01.12.2015 00:00 10,2 C 82 % 1024,5 hPa 0,0 l/m 52,5 km/h W-SW 7,3 C -2,2 C 29,2 km/h
01.12.2015 01:00 10,2 C 81 % 1024,4 hPa 0,0 l/m 21,4 km/h W-SW 7,1 C 3,1 C 11,9 km/h
01.12.2015 02:00 10,8 C 78 % 1024,6 hPa 0,0 l/m 43,4 km/h W 7,1 C -0,4 C 24,1 km/h
01.12.2015 03:00 10,1 C 82 % 1025,2 hPa 0,0 l/m 37,6 km/h W 7,2 C -0,6 C 20,9 km/h
01.12.2015 04:00 9,9 C 83 % 1025,5 hPa 0,0 l/m 24,0 km/h W-SW 7,2 C 2,0 C 13,3 km/h
01.12.2015 05:00 9,3 C 86 % 1025,7 hPa 0,0 l/m 22,7 km/h W 7,1 C 1,5 C 12,6 km/h
01.12.2015 06:00 10,1 C 82 % 1025,7 hPa 0,0 l/m 18,8 km/h W-SW 7,2 C 3,8 C 10,4 km/h
01.12.2015 07:00 9,6 C 84 % 1026,1 hPa 0,0 l/m 24,0 km/h SW 7,0 C 1,6 C 13,3 km/h
01.12.2015 08:00 9,9 C 82 % 1027,1 hPa 0,0 l/m 21,4 km/h SW 7,0 C 2,7 C 11,9 km/h
01.12.2015 09:00 10,2 C 80 % 1027,1 hPa 0,0 l/m 18,8 km/h W 6,9 C 3,9 C 10,4 km/h
01.12.2015 10:00 10,5 C 78 % 1027,6 hPa 0,0 l/m 7,8 km/h SW 6,8 C 9,5 C 4,3 km/h
01.12.2015 11:00 10,8 C 77 % 1027,6 hPa 0,0 l/m 33,7 km/h SW 6,9 C 1,1 C 18,7 km/h
01.12.2015 12:00 11,0 C 76 % 1027,6 hPa 0,0 l/m 25,3 km/h W-SW 6,9 C 3,1 C 14,0 km/h
01.12.2015 13:00 11,2 C 75 % 1027,9 hPa 0,0 l/m 38,2 km/h W-SW 6,9 C 0,9 C 21,2 km/h
01.12.2015 14:00 10,6 C 79 % 1028,0 hPa 0,0 l/m 23,3 km/h SW 7,1 C 3,1 C 13,0 km/h
01.12.2015 15:00 10,9 C 77 % 1028,3 hPa 0,0 l/m 20,7 km/h W 7,0 C 4,2 C 11,5 km/h
01.12.2015 16:00 11,0 C 76 % 1028,4 hPa 0,0 l/m 18,8 km/h W 6,9 C 5,0 C 10,4 km/h
01.12.2015 17:00 10,9 C 75 % 1028,5 hPa 0,0 l/m 20,1 km/h W 6,6 C 4,4 C 11,2 km/h
01.12.2015 18:00 10,9 C 74 % 1028,9 hPa 0,0 l/m 14,3 km/h SW 6,5 C 6,5 C 7,9 km/h
01.12.2015 19:00 10,8 C 73 % 1028,5 hPa 0,0 l/m 0,0 km/h W 6,2 C 10,8 C 0,0 km/h
01.12.2015 20:00 10,1 C 74 % 1028,8 hPa 0,0 l/m 0,0 km/h SO 5,7 C 10,1 C 0,0 km/h
01.12.2015 21:00 9,3 C 79 % 1028,9 hPa 0,0 l/m 5,8 km/h SO 5,8 C 9,3 C 3,2 km/h
01.12.2015 22:00 8,5 C 82 % 1028,5 hPa 0,0 l/m 0,0 km/h O-SO 5,6 C 8,5 C 0,0 km/h
01.12.2015 23:00 7,9 C 84 % 1028,8 hPa 0,0 l/m 0,0 km/h O 5,4 C 7,9 C 0,0 km/h
02.12.2015 00:00 7,9 C 86 % 1028,7 hPa 0,0 l/m 0,0 km/h O 5,7 C 7,9 C 0,0 km/h
02.12.2015 01:00 7,9 C 87 % 1028,1 hPa 0,0 l/m 0,0 km/h SO 5,9 C 7,9 C 0,0 km/h
02.12.2015 02:00 8,0 C 87 % 1028,0 hPa 0,0 l/m 5,2 km/h SO 6,0 C 8,0 C 2,9 km/h
02.12.2015 03:00 8,0 C 87 % 1027,8 hPa 0,0 l/m 0,0 km/h SO 6,0 C 8,0 C 0,0 km/h
02.12.2015 04:00 7,9 C 88 % 1027,4 hPa 0,0 l/m 0,0 km/h SO 6,0 C 7,9 C 0,0 km/h
02.12.2015 05:00 7,9 C 88 % 1027,2 hPa 0,0 l/m 0,0 km/h SO 6,0 C 7,9 C 0,0 km/h
02.12.2015 06:00 7,9 C 88 % 1027,4 hPa 0,0 l/m 0,0 km/h SO 6,0 C 7,9 C 0,0 km/h
02.12.2015 07:00 7,9 C 88 % 1027,2 hPa 0,0 l/m 0,0 km/h SO 6,0 C 7,9 C 0,0 km/h
02.12.2015 08:00 7,9 C 88 % 1027,4 hPa 0,0 l/m 0,0 km/h SO 6,0 C 7,9 C 0,0 km/h
02.12.2015 09:00 7,9 C 88 % 1027,6 hPa 0,0 l/m 0,0 km/h W-SW 6,0 C 7,9 C 0,0 km/h
02.12.2015 10:00 17,8 C 65 % 1027,6 hPa 0,0 l/m 0,0 km/h O-NO 11,1 C 17,8 C 0,0 km/h
02.12.2015 11:00 18,9 C 55 % 1027,5 hPa 0,0 l/m 0,0 km/h SO 9,7 C 18,9 C 0,0 km/h
02.12.2015 12:00 15,9 C 59 % 1026,9 hPa 0,0 l/m 0,0 km/h SO 7,9 C 15,9 C 0,0 km/h
02.12.2015 13:00 17,2 C 56 % 1026,7 hPa 0,0 l/m 0,0 km/h SO 8,3 C 17,2 C 0,0 km/h
02.12.2015 14:00 19,5 C 50 % 1026,2 hPa 0,0 l/m 0,0 km/h N 8,8 C 19,5 C 0,0 km/h
02.12.2015 15:00 19,5 C 50 % 1026,0 hPa 0,0 l/m 0,0 km/h SO 8,8 C 19,5 C 0,0 km/h
02.12.2015 16:00 9,9 C 67 % 1026,5 hPa 0,0 l/m 0,0 km/h SO 4,1 C 9,9 C 0,0 km/h
02.12.2015 17:00 6,4 C 80 % 1026,7 hPa 0,0 l/m 0,0 km/h SO 3,2 C 6,4 C 0,0 km/h
02.12.2015 18:00 5,8 C 84 % 1027,1 hPa 0,0 l/m 0,0 km/h SO 3,3 C 5,8 C 0,0 km/h
02.12.2015 19:00 4,6 C 86 % 1027,2 hPa 0,0 l/m 0,0 km/h SO 2,5 C 4,6 C 0,0 km/h
02.12.2015 20:00 3,9 C 87 % 1027,1 hPa 0,0 l/m 2,6 km/h SO 1,9 C 3,9 C 1,4 km/h
02.12.2015 21:00 3,1 C 88 % 1027,5 hPa 0,0 l/m 0,0 km/h SO 1,3 C 3,1 C 0,0 km/h
02.12.2015 22:00 3,8 C 88 % 1027,5 hPa 0,0 l/m 0,0 km/h O-SO 2,0 C 3,8 C 0,0 km/h
02.12.2015 23:00 2,9 C 89 % 1027,7 hPa 0,0 l/m 0,0 km/h O-SO 1,3 C 2,9 C 0,0 km/h
03.12.2015 00:00 2,3 C 88 % 1027,7 hPa 0,0 l/m 0,0 km/h O-SO 0,5 C 2,3 C 0,0 km/h
03.12.2015 01:00 1,4 C 89 % 1027,7 hPa 0,0 l/m 0,0 km/h O-SO -0,2 C 1,4 C 0,0 km/h
03.12.2015 02:00 0,4 C 89 % 1027,9 hPa 0,0 l/m 0,0 km/h O-SO -1,2 C 0,4 C 0,0 km/h
03.12.2015 03:00 0,9 C 89 % 1028,3 hPa 0,0 l/m 0,0 km/h O -0,7 C 0,9 C 0,0 km/h
03.12.2015 04:00 1,1 C 88 % 1028,0 hPa 0,0 l/m 0,0 km/h O-SO -0,7 C 1,1 C 0,0 km/h
03.12.2015 05:00 0,4 C 88 % 1028,1 hPa 0,0 l/m 0,0 km/h O -1,3 C 0,4 C 0,0 km/h
03.12.2015 06:00 0,6 C 88 % 1028,1 hPa 0,0 l/m 0,0 km/h O-NO -1,2 C 0,6 C 0,0 km/h
03.12.2015 07:00 0,1 C 88 % 1028,3 hPa 0,0 l/m 0,0 km/h O-NO -1,6 C 0,1 C 0,0 km/h
03.12.2015 08:00 -0,7 C 88 % 1028,6 hPa 0,0 l/m 0,0 km/h SO -2,4 C -0,7 C 0,0 km/h
03.12.2015 09:00 0,8 C 87 % 1028,8 hPa 0,0 l/m 0,0 km/h N-NO -1,1 C 0,8 C 0,0 km/h
03.12.2015 10:00 3,5 C 89 % 1028,2 hPa 0,0 l/m 0,0 km/h W 1,9 C 3,5 C 0,0 km/h
03.12.2015 11:00 3,9 C 89 % 1028,2 hPa 0,0 l/m 7,1 km/h W 2,3 C 3,3 C 4,0 km/h
03.12.2015 12:00 3,8 C 89 % 1028,1 hPa 0,0 l/m 0,0 km/h W 2,2 C 3,8 C 0,0 km/h
03.12.2015 13:00 3,9 C 89 % 1027,7 hPa 0,0 l/m 0,0 km/h S-SW 2,3 C 3,9 C 0,0 km/h
03.12.2015 14:00 3,9 C 89 % 1026,8 hPa 0,0 l/m 0,0 km/h S 2,3 C 3,9 C 0,0 km/h
03.12.2015 15:00 3,3 C 89 % 1026,8 hPa 0,0 l/m 0,0 km/h W-NW 1,7 C 3,3 C 0,0 km/h
03.12.2015 16:00 3,0 C 89 % 1027,3 hPa 0,0 l/m 0,0 km/h SO 1,4 C 3,0 C 0,0 km/h
03.12.2015 17:00 2,8 C 89 % 1027,1 hPa 0,0 l/m 9,7 km/h O-SO 1,2 C -0,1 C 5,4 km/h
03.12.2015 18:00 0,7 C 89 % 1026,0 hPa 0,0 l/m 0,0 km/h O -0,9 C 0,7 C 0,0 km/h
03.12.2015 19:00 0,4 C 89 % 1025,9 hPa 0,0 l/m 0,0 km/h NW -1,2 C 0,4 C 0,0 km/h
03.12.2015 20:00 1,3 C 88 % 1026,1 hPa 0,0 l/m 0,0 km/h N-NO -0,5 C 1,3 C 0,0 km/h
03.12.2015 21:00 0,9 C 88 % 1025,6 hPa 0,0 l/m 0,0 km/h W-SW -0,9 C 0,9 C 0,0 km/h
03.12.2015 22:00 0,4 C 88 % 1025,5 hPa 0,0 l/m 0,0 km/h W-SW -1,3 C 0,4 C 0,0 km/h
03.12.2015 23:00 0,9 C 87 % 1025,6 hPa 0,0 l/m 0,0 km/h W-NW -1,0 C 0,9 C 0,0 km/h
04.12.2015 00:00 0,1 C 87 % 1025,6 hPa 0,0 l/m 0,0 km/h NO -1,8 C 0,1 C 0,0 km/h
04.12.2015 01:00 -0,8 C 88 % 1025,3 hPa 0,0 l/m 0,0 km/h NO -2,5 C -0,8 C 0,0 km/h
04.12.2015 02:00 -0,2 C 86 % 1025,6 hPa 0,0 l/m 0,0 km/h N-NO -2,3 C -0,2 C 0,0 km/h
04.12.2015 03:00 1,5 C 85 % 1025,7 hPa 0,0 l/m 0,0 km/h N-NO -0,7 C 1,5 C 0,0 km/h
04.12.2015 04:00 2,1 C 85 % 1026,4 hPa 0,0 l/m 0,0 km/h N-NO -0,2 C 2,1 C 0,0 km/h
04.12.2015 05:00 2,2 C 86 % 1026,7 hPa 0,0 l/m 0,0 km/h SO 0,1 C 2,2 C 0,0 km/h
04.12.2015 06:00 1,9 C 87 % 1026,9 hPa 0,0 l/m 0,0 km/h N-NO -0,0 C 1,9 C 0,0 km/h
04.12.2015 07:00 2,7 C 88 % 1027,4 hPa 0,0 l/m 0,0 km/h O-SO 0,9 C 2,7 C 0,0 km/h
04.12.2015 08:00 4,5 C 89 % 1027,9 hPa 0,0 l/m 0,0 km/h W-SW 2,8 C 4,5 C 0,0 km/h
04.12.2015 09:00 7,9 C 86 % 1028,8 hPa 0,0 l/m 0,0 km/h W 5,7 C 7,9 C 0,0 km/h
04.12.2015 10:00 9,9 C 69 % 1029,2 hPa 0,0 l/m 9,1 km/h W 4,5 C 8,0 C 5,0 km/h
04.12.2015 11:00 10,1 C 68 % 1029,6 hPa 0,0 l/m 18,1 km/h S-SO 4,5 C 4,1 C 10,1 km/h
04.12.2015 12:00 10,3 C 70 % 1029,7 hPa 0,0 l/m 6,5 km/h S-SW 5,1 C 10,3 C 3,6 km/h
04.12.2015 13:00 10,6 C 75 % 1030,0 hPa 0,0 l/m 16,2 km/h W-SW 6,4 C 5,4 C 9,0 km/h
04.12.2015 14:00 10,2 C 77 % 1030,3 hPa 0,0 l/m 15,6 km/h W 6,4 C 5,1 C 8,6 km/h
04.12.2015 15:00 9,9 C 79 % 1030,7 hPa 0,0 l/m 0,0 km/h NW 6,4 C 9,9 C 0,0 km/h
04.12.2015 16:00 9,8 C 79 % 1031,1 hPa 0,0 l/m 0,0 km/h N-NO 6,3 C 9,8 C 0,0 km/h
04.12.2015 17:00 9,6 C 78 % 1031,7 hPa 0,0 l/m 0,0 km/h N-NO 6,0 C 9,6 C 0,0 km/h
04.12.2015 18:00 8,7 C 80 % 1032,3 hPa 0,0 l/m 0,0 km/h O 5,4 C 8,7 C 0,0 km/h
04.12.2015 19:00 8,1 C 83 % 1032,4 hPa 0,0 l/m 0,0 km/h SO 5,4 C 8,1 C 0,0 km/h
04.12.2015 20:00 7,9 C 85 % 1032,6 hPa 0,0 l/m 3,2 km/h SO 5,5 C 7,9 C 1,8 km/h
04.12.2015 21:00 7,8 C 86 % 1032,7 hPa 0,0 l/m 0,0 km/h O 5,6 C 7,8 C 0,0 km/h
04.12.2015 22:00 7,8 C 87 % 1032,6 hPa 0,0 l/m 0,0 km/h O 5,8 C 7,8 C 0,0 km/h
04.12.2015 23:00 7,5 C 87 % 1032,5 hPa 0,0 l/m 0,0 km/h O 5,5 C 7,5 C 0,0 km/h
05.12.2015 00:00 7,4 C 88 % 1032,4 hPa 0,0 l/m 0,0 km/h O 5,5 C 7,4 C 0,0 km/h
05.12.2015 01:00 7,2 C 88 % 1032,0 hPa 0,0 l/m 0,0 km/h O 5,3 C 7,2 C 0,0 km/h
05.12.2015 02:00 6,9 C 88 % 1031,6 hPa 0,0 l/m 0,0 km/h O 5,1 C 6,9 C 0,0 km/h
05.12.2015 03:00 6,2 C 88 % 1030,9 hPa 0,0 l/m 0,0 km/h O 4,4 C 6,2 C 0,0 km/h
05.12.2015 04:00 5,9 C 89 % 1030,9 hPa 0,0 l/m 0,0 km/h O 4,2 C 5,9 C 0,0 km/h
05.12.2015 05:00 5,9 C 89 % 1030,7 hPa 0,0 l/m 0,0 km/h O 4,2 C 5,9 C 0,0 km/h
05.12.2015 06:00 4,3 C 89 % 1030,3 hPa 0,0 l/m 0,0 km/h O 2,7 C 4,3 C 0,0 km/h
05.12.2015 07:00 2,9 C 89 % 1030,1 hPa 0,0 l/m 0,0 km/h SO 1,3 C 2,9 C 0,0 km/h
05.12.2015 08:00 3,1 C 89 % 1031,1 hPa 0,0 l/m 0,0 km/h O-SO 1,5 C 3,1 C 0,0 km/h
05.12.2015 09:00 3,1 C 89 % 1031,0 hPa 0,0 l/m 0,0 km/h SO 1,5 C 3,1 C 0,0 km/h
05.12.2015 10:00 13,1 C 77 % 1031,0 hPa 0,0 l/m 0,0 km/h N 9,2 C 13,1 C 0,0 km/h
05.12.2015 11:00 14,8 C 68 % 1029,9 hPa 0,0 l/m 0,0 km/h W-SW 9,0 C 14,8 C 0,0 km/h
05.12.2015 12:00 14,3 C 68 % 1029,1 hPa 0,0 l/m 0,0 km/h NW 8,5 C 14,3 C 0,0 km/h
05.12.2015 13:00 13,8 C 68 % 1028,4 hPa 0,0 l/m 1,9 km/h W-NW 8,0 C 13,8 C 1,1 km/h
05.12.2015 14:00 14,3 C 64 % 1028,2 hPa 0,0 l/m 0,0 km/h W-NW 7,6 C 14,3 C 0,0 km/h
05.12.2015 15:00 17,3 C 58 % 1028,3 hPa 0,0 l/m 0,0 km/h W-NW 9,0 C 17,3 C 0,0 km/h
05.12.2015 16:00 9,6 C 71 % 1028,2 hPa 0,0 l/m 0,0 km/h W-NW 4,6 C 9,6 C 0,0 km/h
05.12.2015 17:00 6,1 C 83 % 1027,8 hPa 0,0 l/m 0,0 km/h W-NW 3,4 C 6,1 C 0,0 km/h
05.12.2015 18:00 4,5 C 86 % 1027,3 hPa 0,0 l/m 1,3 km/h NW 2,4 C 4,5 C 0,7 km/h
05.12.2015 19:00 3,9 C 87 % 1027,5 hPa 0,0 l/m 0,0 km/h SO 1,9 C 3,9 C 0,0 km/h
05.12.2015 20:00 3,8 C 88 % 1027,0 hPa 0,0 l/m 0,0 km/h SO 2,0 C 3,8 C 0,0 km/h
05.12.2015 21:00 3,1 C 89 % 1027,0 hPa 0,0 l/m 0,0 km/h SO 1,5 C 3,1 C 0,0 km/h
05.12.2015 22:00 2,9 C 89 % 1026,8 hPa 0,0 l/m 0,0 km/h NO 1,3 C 2,9 C 0,0 km/h
05.12.2015 23:00 2,2 C 88 % 1026,9 hPa 0,0 l/m 0,0 km/h SO 0,4 C 2,2 C 0,0 km/h
06.12.2015 00:00 2,9 C 88 % 1027,0 hPa 0,0 l/m 0,0 km/h SO 1,1 C 2,9 C 0,0 km/h
06.12.2015 01:00 8,8 C 88 % 1026,7 hPa 0,0 l/m 9,1 km/h SW 6,9 C 6,8 C 5,0 km/h
06.12.2015 02:00 10,4 C 80 % 1026,6 hPa 0,0 l/m 16,8 km/h S-SW 7,1 C 4,9 C 9,4 km/h
06.12.2015 03:00 10,2 C 79 % 1026,3 hPa 0,0 l/m 22,7 km/h S-SW 6,7 C 2,7 C 12,6 km/h
06.12.2015 04:00 9,6 C 80 % 1026,2 hPa 0,0 l/m 35,0 km/h W-SW 6,3 C -0,9 C 19,4 km/h
06.12.2015 05:00 9,3 C 80 % 1025,8 hPa 0,0 l/m 0,0 km/h S-SO 6,0 C 9,3 C 0,0 km/h
06.12.2015 06:00 10,1 C 77 % 1026,1 hPa 0,0 l/m 12,3 km/h W-SW 6,3 C 6,5 C 6,8 km/h
06.12.2015 07:00 7,9 C 80 % 1026,7 hPa 0,0 l/m 0,0 km/h N-NO 4,7 C 7,9 C 0,0 km/h
06.12.2015 08:00 5,9 C 84 % 1027,1 hPa 0,0 l/m 0,0 km/h S-SW 3,4 C 5,9 C 0,0 km/h
06.12.2015 09:00 13,4 C 73 % 1027,5 hPa 0,0 l/m 13,6 km/h W-SW 8,7 C 9,8 C 7,6 km/h
06.12.2015 10:00 13,7 C 70 % 1028,0 hPa 0,0 l/m 23,3 km/h W-SW 8,3 C 7,2 C 13,0 km/h
06.12.2015 11:00 14,8 C 66 % 1027,1 hPa 0,0 l/m 14,9 km/h W 8,5 C 11,0 C 8,3 km/h
06.12.2015 12:00 15,7 C 63 % 1026,6 hPa 0,0 l/m 9,7 km/h W 8,7 C 14,0 C 5,4 km/h
06.12.2015 13:00 16,7 C 61 % 1026,5 hPa 0,0 l/m 23,3 km/h S 9,1 C 11,2 C 13,0 km/h
06.12.2015 14:00 17,3 C 55 % 1026,2 hPa 0,0 l/m 13,6 km/h W-SW 8,2 C 14,4 C 7,6 km/h
06.12.2015 15:00 16,9 C 55 % 1026,8 hPa 0,0 l/m 16,2 km/h W 7,8 C 13,2 C 9,0 km/h
06.12.2015 16:00 12,1 C 66 % 1027,2 hPa 0,0 l/m 0,0 km/h NW 5,9 C 12,1 C 0,0 km/h
06.12.2015 17:00 10,6 C 74 % 1027,6 hPa 0,0 l/m 0,0 km/h NW 6,2 C 10,6 C 0,0 km/h
06.12.2015 18:00 10,2 C 78 % 1027,9 hPa 0,0 l/m 0,0 km/h NW 6,5 C 10,2 C 0,0 km/h
06.12.2015 19:00 9,8 C 80 % 1028,1 hPa 0,0 l/m 0,0 km/h NW 6,5 C 9,8 C 0,0 km/h
06.12.2015 20:00 9,8 C 80 % 1028,7 hPa 0,0 l/m 0,0 km/h NW 6,5 C 9,8 C 0,0 km/h
06.12.2015 21:00 9,3 C 83 % 1028,7 hPa 0,0 l/m 0,0 km/h SO 6,6 C 9,3 C 0,0 km/h
06.12.2015 22:00 9,3 C 84 % 1028,8 hPa 0,0 l/m 0,0 km/h O-SO 6,7 C 9,3 C 0,0 km/h
06.12.2015 23:00 9,2 C 85 % 1029,1 hPa 0,0 l/m 0,0 km/h O-SO 6,8 C 9,2 C 0,0 km/h
Min-Datum _ 04.12.15 02.12.15 30.11.15 - 01.12.15 - 04.12.15 01.12.15 01.12.15
_ Min-Zeit 01:42 14:42 01:42 - 19:42 - 01:42 00:42 19:42
Minimum _ -0,8 C 50 % 1022,4 hPa - 0,0 km/h - -2,5 C -2,2 C 0,0 km/h
Max-Datum _ 02.12.15 02.12.15 04.12.15 30.11.15 01.12.15 - 02.12.15 02.12.15 01.12.15
_ Max-Zeit 14:42 23:42 21:42 00:42 00:42 - 10:42 14:42 00:42
Maximum _ 19,5 C 89 % 1032,7 hPa 0,4 l/m 52,5 km/h
W-SW
- 11,1 C 19,5 C 29,2 km/h
W-SW
Durchschnitt _ 8,0 C 81 % 1027,4 hPa #0,4 l/m 8,5 km/h SO 4,8 C 5,6 C 4,7 km/h
www.sexauwetter.de